sensor_id;sensor_type;location;lat;lon;timestamp;pressure;altitude;pressure_sealevel;temperature;humidity
54994;BME280;40891;47.242;8.648;2022-08-19T00:00:44;95999.00;;;18.41;100.00
54994;BME280;40891;47.242;8.648;2022-08-19T00:03:09;95996.97;;;18.42;100.00
54994;BME280;40891;47.242;8.648;2022-08-19T00:05:35;95996.47;;;18.60;100.00
54994;BME280;40891;47.242;8.648;2022-08-19T00:08:00;95995.97;;;18.50;100.00
54994;BME280;40891;47.242;8.648;2022-08-19T00:10:26;95988.78;;;18.55;100.00
54994;BME280;40891;47.242;8.648;2022-08-19T00:12:52;95979.81;;;18.56;100.00
54994;BME280;40891;47.242;8.648;2022-08-19T00:15:19;95982.06;;;18.74;100.00
54994;BME280;40891;47.242;8.648;2022-08-19T00:17:46;95984.44;;;18.59;100.00
54994;BME280;40891;47.242;8.648;2022-08-19T00:20:14;95990.03;;;18.70;100.00
54994;BME280;40891;47.242;8.648;2022-08-19T00:22:42;95991.78;;;18.79;100.00
54994;BME280;40891;47.242;8.648;2022-08-19T00:25:08;96002.06;;;18.71;100.00
54994;BME280;40891;47.242;8.648;2022-08-19T00:27:34;96007.19;;;18.67;100.00
54994;BME280;40891;47.242;8.648;2022-08-19T00:30:00;96004.34;;;18.72;100.00
54994;BME280;40891;47.242;8.648;2022-08-19T00:32:27;96005.13;;;18.73;100.00
54994;BME280;40891;47.242;8.648;2022-08-19T00:34:53;95997.72;;;18.64;100.00
54994;BME280;40891;47.242;8.648;2022-08-19T00:37:20;95997.94;;;18.72;100.00
54994;BME280;40891;47.242;8.648;2022-08-19T00:39:48;96004.13;;;18.54;100.00
54994;BME280;40891;47.242;8.648;2022-08-19T00:42:13;95996.72;;;18.45;100.00
54994;BME280;40891;47.242;8.648;2022-08-19T00:44:40;95996.22;;;18.47;100.00
54994;BME280;40891;47.242;8.648;2022-08-19T00:47:06;96009.75;;;18.43;100.00
54994;BME280;40891;47.242;8.648;2022-08-19T00:49:38;96003.13;;;18.40;100.00
54994;BME280;40891;47.242;8.648;2022-08-19T00:52:12;95990.56;;;18.41;100.00
54994;BME280;40891;47.242;8.648;2022-08-19T00:54:40;96007.19;;;18.39;100.00
54994;BME280;40891;47.242;8.648;2022-08-19T00:57:08;95998.25;;;18.46;100.00
54994;BME280;40891;47.242;8.648;2022-08-19T00:59:36;95999.78;;;18.58;100.00
54994;BME280;40891;47.242;8.648;2022-08-19T01:02:03;95991.81;;;18.62;100.00
54994;BME280;40891;47.242;8.648;2022-08-19T01:04:29;95985.44;;;18.40;100.00
54994;BME280;40891;47.242;8.648;2022-08-19T01:06:56;95990.31;;;18.22;100.00
54994;BME280;40891;47.242;8.648;2022-08-19T01:09:21;95992.13;;;18.20;100.00
54994;BME280;40891;47.242;8.648;2022-08-19T01:11:47;95988.03;;;18.21;100.00
54994;BME280;40891;47.242;8.648;2022-08-19T01:14:13;95973.97;;;18.21;100.00
54994;BME280;40891;47.242;8.648;2022-08-19T01:16:40;95978.78;;;18.48;100.00
54994;BME280;40891;47.242;8.648;2022-08-19T01:19:18;95980.09;;;18.30;100.00
54994;BME280;40891;47.242;8.648;2022-08-19T01:21:58;95975.22;;;18.42;100.00
54994;BME280;40891;47.242;8.648;2022-08-19T01:24:24;95978.28;;;18.38;100.00
54994;BME280;40891;47.242;8.648;2022-08-19T01:26:50;95982.63;;;18.34;100.00
54994;BME280;40891;47.242;8.648;2022-08-19T01:29:16;95982.38;;;18.38;100.00
54994;BME280;40891;47.242;8.648;2022-08-19T01:31:41;95981.38;;;18.35;100.00
54994;BME280;40891;47.242;8.648;2022-08-19T01:34:07;95978.78;;;18.37;100.00
54994;BME280;40891;47.242;8.648;2022-08-19T01:38:58;95984.44;;;18.20;100.00
54994;BME280;40891;47.242;8.648;2022-08-19T01:41:24;95985.47;;;18.28;100.00
54994;BME280;40891;47.242;8.648;2022-08-19T01:43:51;95987.50;;;18.22;100.00
54994;BME280;40891;47.242;8.648;2022-08-19T01:46:17;95982.41;;;18.21;100.00
54994;BME280;40891;47.242;8.648;2022-08-19T01:48:43;95974.22;;;18.28;100.00
54994;BME280;40891;47.242;8.648;2022-08-19T01:51:10;95970.63;;;18.28;100.00
54994;BME280;40891;47.242;8.648;2022-08-19T01:53:36;95972.66;;;18.22;100.00
54994;BME280;40891;47.242;8.648;2022-08-19T01:56:02;95968.06;;;18.13;100.00
54994;BME280;40891;47.242;8.648;2022-08-19T01:58:33;95966.28;;;18.10;100.00
54994;BME280;40891;47.242;8.648;2022-08-19T02:01:01;95967.81;;;18.11;100.00
54994;BME280;40891;47.242;8.648;2022-08-19T02:03:27;95959.88;;;18.15;100.00
54994;BME280;40891;47.242;8.648;2022-08-19T02:06:00;95956.53;;;18.45;100.00
54994;BME280;40891;47.242;8.648;2022-08-19T02:08:28;95960.38;;;18.25;100.00
54994;BME280;40891;47.242;8.648;2022-08-19T02:10:53;95954.47;;;18.34;100.00
54994;BME280;40891;47.242;8.648;2022-08-19T02:13:19;95952.22;;;18.21;100.00
54994;BME280;40891;47.242;8.648;2022-08-19T02:15:44;95957.59;;;18.14;100.00
54994;BME280;40891;47.242;8.648;2022-08-19T02:18:09;95962.72;;;18.10;100.00
54994;BME280;40891;47.242;8.648;2022-08-19T02:20:37;95949.69;;;18.12;100.00
54994;BME280;40891;47.242;8.648;2022-08-19T02:23:03;95962.44;;;18.13;100.00
54994;BME280;40891;47.242;8.648;2022-08-19T02:25:29;95971.16;;;18.15;100.00
54994;BME280;40891;47.242;8.648;2022-08-19T02:27:54;95975.50;;;18.16;100.00
54994;BME280;40891;47.242;8.648;2022-08-19T02:30:20;95974.22;;;18.23;100.00
54994;BME280;40891;47.242;8.648;2022-08-19T02:32:46;95968.84;;;18.30;100.00
54994;BME280;40891;47.242;8.648;2022-08-19T02:35:12;95965.50;;;18.15;100.00
54994;BME280;40891;47.242;8.648;2022-08-19T02:37:38;95961.94;;;18.20;100.00
54994;BME280;40891;47.242;8.648;2022-08-19T02:40:22;95954.22;;;18.32;100.00
54994;BME280;40891;47.242;8.648;2022-08-19T02:42:47;95967.31;;;18.18;100.00
54994;BME280;40891;47.242;8.648;2022-08-19T02:45:13;95976.53;;;18.13;100.00
54994;BME280;40891;47.242;8.648;2022-08-19T02:47:39;95964.00;;;18.03;100.00
54994;BME280;40891;47.242;8.648;2022-08-19T02:50:06;95970.38;;;18.04;100.00
54994;BME280;40891;47.242;8.648;2022-08-19T02:52:33;95968.63;;;17.95;100.00
54994;BME280;40891;47.242;8.648;2022-08-19T02:54:59;95964.50;;;17.96;100.00
54994;BME280;40891;47.242;8.648;2022-08-19T02:57:25;95969.09;;;17.94;100.00
54994;BME280;40891;47.242;8.648;2022-08-19T02:59:51;95961.94;;;18.04;100.00
54994;BME280;40891;47.242;8.648;2022-08-19T03:02:16;95966.28;;;17.94;100.00
54994;BME280;40891;47.242;8.648;2022-08-19T03:04:42;95958.66;;;17.89;100.00
54994;BME280;40891;47.242;8.648;2022-08-19T03:07:08;95948.16;;;17.95;100.00
54994;BME280;40891;47.242;8.648;2022-08-19T03:09:36;95948.91;;;18.06;100.00
54994;BME280;40891;47.242;8.648;2022-08-19T03:12:03;95953.00;;;18.16;100.00
54994;BME280;40891;47.242;8.648;2022-08-19T03:14:32;95949.69;;;17.96;100.00
54994;BME280;40891;47.242;8.648;2022-08-19T03:16:59;95957.09;;;18.04;100.00
54994;BME280;40891;47.242;8.648;2022-08-19T03:19:24;95953.78;;;17.95;100.00
54994;BME280;40891;47.242;8.648;2022-08-19T03:21:51;95963.50;;;17.99;100.00
54994;BME280;40891;47.242;8.648;2022-08-19T03:24:18;95966.28;;;17.94;100.00
54994;BME280;40891;47.242;8.648;2022-08-19T03:26:49;95970.16;;;17.91;100.00
54994;BME280;40891;47.242;8.648;2022-08-19T03:29:17;95976.00;;;17.87;100.00
54994;BME280;40891;47.242;8.648;2022-08-19T03:31:43;95977.56;;;17.88;100.00
54994;BME280;40891;47.242;8.648;2022-08-19T03:34:12;95975.50;;;17.83;100.00
54994;BME280;40891;47.242;8.648;2022-08-19T03:36:38;95968.09;;;17.86;100.00
54994;BME280;40891;47.242;8.648;2022-08-19T03:39:04;95963.50;;;17.83;100.00
54994;BME280;40891;47.242;8.648;2022-08-19T03:41:35;95959.66;;;17.80;100.00
54994;BME280;40891;47.242;8.648;2022-08-19T03:44:01;95960.16;;;17.84;100.00
54994;BME280;40891;47.242;8.648;2022-08-19T03:46:29;95954.00;;;17.91;100.00
54994;BME280;40891;47.242;8.648;2022-08-19T03:48:57;95951.97;;;18.14;100.00
54994;BME280;40891;47.242;8.648;2022-08-19T03:51:25;95952.50;;;17.90;100.00
54994;BME280;40891;47.242;8.648;2022-08-19T03:53:53;95947.13;;;17.98;100.00
54994;BME280;40891;47.242;8.648;2022-08-19T03:56:20;95950.44;;;17.80;100.00
54994;BME280;40891;47.242;8.648;2022-08-19T03:58:46;95956.84;;;17.86;100.00
54994;BME280;40891;47.242;8.648;2022-08-19T04:01:15;95944.81;;;17.96;100.00
54994;BME280;40891;47.242;8.648;2022-08-19T04:03:41;95946.09;;;17.90;100.00
54994;BME280;40891;47.242;8.648;2022-08-19T04:06:15;95941.50;;;17.87;100.00
54994;BME280;40891;47.242;8.648;2022-08-19T04:08:43;95946.09;;;17.79;100.00
54994;BME280;40891;47.242;8.648;2022-08-19T04:11:10;95953.25;;;17.80;100.00
54994;BME280;40891;47.242;8.648;2022-08-19T04:13:36;95946.59;;;17.77;100.00
54994;BME280;40891;47.242;8.648;2022-08-19T04:16:03;95956.56;;;17.73;100.00
54994;BME280;40891;47.242;8.648;2022-08-19T04:18:29;95961.44;;;17.66;100.00
54994;BME280;40891;47.242;8.648;2022-08-19T04:20:55;95970.13;;;17.68;100.00
54994;BME280;40891;47.242;8.648;2022-08-19T04:23:22;95968.59;;;17.73;100.00
54994;BME280;40891;47.242;8.648;2022-08-19T04:25:47;95964.25;;;17.72;100.00
54994;BME280;40891;47.242;8.648;2022-08-19T04:28:13;95974.72;;;17.77;100.00
54994;BME280;40891;47.242;8.648;2022-08-19T04:30:46;95983.19;;;17.72;100.00
54994;BME280;40891;47.242;8.648;2022-08-19T04:33:13;95981.63;;;17.76;100.00
54994;BME280;40891;47.242;8.648;2022-08-19T04:35:43;95977.53;;;17.66;100.00
54994;BME280;40891;47.242;8.648;2022-08-19T04:38:10;95975.25;;;17.64;100.00
54994;BME280;40891;47.242;8.648;2022-08-19T04:40:46;95965.75;;;17.67;100.00
54994;BME280;40891;47.242;8.648;2022-08-19T04:43:31;95975.75;;;17.68;100.00
54994;BME280;40891;47.242;8.648;2022-08-19T04:45:57;95978.56;;;17.68;100.00
54994;BME280;40891;47.242;8.648;2022-08-19T04:48:23;95975.25;;;17.76;100.00
54994;BME280;40891;47.242;8.648;2022-08-19T04:50:52;95982.91;;;17.81;100.00
54994;BME280;40891;47.242;8.648;2022-08-19T04:53:26;95986.00;;;17.72;100.00
54994;BME280;40891;47.242;8.648;2022-08-19T04:55:57;95984.19;;;17.80;100.00
54994;BME280;40891;47.242;8.648;2022-08-19T04:58:24;95996.72;;;17.73;100.00
54994;BME280;40891;47.242;8.648;2022-08-19T05:00:50;95998.00;;;17.83;100.00
54994;BME280;40891;47.242;8.648;2022-08-19T05:03:16;96000.81;;;17.78;100.00
54994;BME280;40891;47.242;8.648;2022-08-19T05:05:48;95999.78;;;17.81;100.00
54994;BME280;40891;47.242;8.648;2022-08-19T05:08:19;96010.03;;;17.78;100.00
54994;BME280;40891;47.242;8.648;2022-08-19T05:10:50;96007.72;;;17.82;100.00
54994;BME280;40891;47.242;8.648;2022-08-19T05:13:19;96010.53;;;17.82;100.00
54994;BME280;40891;47.242;8.648;2022-08-19T05:15:53;96018.47;;;17.84;100.00
54994;BME280;40891;47.242;8.648;2022-08-19T05:18:19;96021.03;;;17.82;100.00
54994;BME280;40891;47.242;8.648;2022-08-19T05:21:09;96018.47;;;17.84;100.00
54994;BME280;40891;47.242;8.648;2022-08-19T05:23:54;96028.19;;;17.83;100.00
54994;BME280;40891;47.242;8.648;2022-08-19T05:26:19;96030.47;;;17.84;100.00
54994;BME280;40891;47.242;8.648;2022-08-19T05:28:45;96035.09;;;17.82;100.00
54994;BME280;40891;47.242;8.648;2022-08-19T05:31:10;96031.00;;;17.83;100.00
54994;BME280;40891;47.242;8.648;2022-08-19T05:33:35;96027.94;;;17.86;100.00
54994;BME280;40891;47.242;8.648;2022-08-19T05:36:02;96043.53;;;17.93;100.00
54994;BME280;40891;47.242;8.648;2022-08-19T05:38:28;96048.13;;;17.85;100.00
54994;BME280;40891;47.242;8.648;2022-08-19T05:40:56;96038.41;;;17.86;100.00
54994;BME280;40891;47.242;8.648;2022-08-19T05:43:25;96047.34;;;17.79;100.00
54994;BME280;40891;47.242;8.648;2022-08-19T05:45:50;96043.78;;;17.84;100.00
54994;BME280;40891;47.242;8.648;2022-08-19T05:48:16;96036.09;;;17.73;100.00
54994;BME280;40891;47.242;8.648;2022-08-19T05:50:45;96045.28;;;17.74;100.00
54994;BME280;40891;47.242;8.648;2022-08-19T05:53:12;96044.28;;;17.77;100.00
54994;BME280;40891;47.242;8.648;2022-08-19T05:55:38;96034.31;;;17.81;100.00
54994;BME280;40891;47.242;8.648;2022-08-19T05:58:04;96029.19;;;17.80;100.00
54994;BME280;40891;47.242;8.648;2022-08-19T06:00:32;96024.09;;;17.78;100.00
54994;BME280;40891;47.242;8.648;2022-08-19T06:02:58;96026.66;;;17.87;100.00
54994;BME280;40891;47.242;8.648;2022-08-19T06:05:28;96031.25;;;17.79;100.00
54994;BME280;40891;47.242;8.648;2022-08-19T06:07:53;96030.72;;;17.81;100.00
54994;BME280;40891;47.242;8.648;2022-08-19T06:10:19;96030.75;;;17.86;100.00
54994;BME280;40891;47.242;8.648;2022-08-19T06:12:46;96036.63;;;17.83;100.00
54994;BME280;40891;47.242;8.648;2022-08-19T06:15:13;96040.97;;;17.89;100.00
54994;BME280;40891;47.242;8.648;2022-08-19T06:17:39;96030.47;;;17.90;100.00
54994;BME280;40891;47.242;8.648;2022-08-19T06:20:06;96037.66;;;17.91;100.00
54994;BME280;40891;47.242;8.648;2022-08-19T06:22:41;96035.84;;;17.88;100.00
54994;BME280;40891;47.242;8.648;2022-08-19T06:25:07;96036.13;;;17.90;100.00
54994;BME280;40891;47.242;8.648;2022-08-19T06:27:34;96039.94;;;17.87;100.00
54994;BME280;40891;47.242;8.648;2022-08-19T06:30:00;96036.63;;;17.88;100.00
54994;BME280;40891;47.242;8.648;2022-08-19T06:32:25;96039.19;;;17.92;100.00
54994;BME280;40891;47.242;8.648;2022-08-19T06:34:50;96034.06;;;17.90;100.00
54994;BME280;40891;47.242;8.648;2022-08-19T06:37:16;96035.34;;;17.95;100.00
54994;BME280;40891;47.242;8.648;2022-08-19T06:39:43;96032.03;;;17.91;100.00
54994;BME280;40891;47.242;8.648;2022-08-19T06:42:10;96035.59;;;17.97;100.00
54994;BME280;40891;47.242;8.648;2022-08-19T06:44:40;96039.72;;;17.96;100.00
54994;BME280;40891;47.242;8.648;2022-08-19T06:47:08;96042.25;;;17.94;100.00
54994;BME280;40891;47.242;8.648;2022-08-19T06:49:35;96045.59;;;17.98;100.00
54994;BME280;40891;47.242;8.648;2022-08-19T06:52:01;96050.97;;;17.96;100.00
54994;BME280;40891;47.242;8.648;2022-08-19T06:54:28;96049.44;;;18.00;100.00
54994;BME280;40891;47.242;8.648;2022-08-19T06:56:56;96054.53;;;18.02;100.00
54994;BME280;40891;47.242;8.648;2022-08-19T06:59:24;96051.72;;;18.02;100.00
54994;BME280;40891;47.242;8.648;2022-08-19T07:01:55;96056.59;;;18.01;100.00
54994;BME280;40891;47.242;8.648;2022-08-19T07:04:23;96057.34;;;18.02;100.00
54994;BME280;40891;47.242;8.648;2022-08-19T07:06:50;96060.94;;;17.97;100.00
54994;BME280;40891;47.242;8.648;2022-08-19T07:09:24;96051.22;;;17.98;100.00
54994;BME280;40891;47.242;8.648;2022-08-19T07:11:52;96056.84;;;18.03;100.00
54994;BME280;40891;47.242;8.648;2022-08-19T07:14:20;96061.97;;;18.05;100.00
54994;BME280;40891;47.242;8.648;2022-08-19T07:16:48;96063.25;;;18.04;100.00
54994;BME280;40891;47.242;8.648;2022-08-19T07:19:14;96070.16;;;18.08;100.00
54994;BME280;40891;47.242;8.648;2022-08-19T07:21:40;96070.41;;;18.16;100.00
54994;BME280;40891;47.242;8.648;2022-08-19T07:24:06;96067.59;;;18.16;100.00
54994;BME280;40891;47.242;8.648;2022-08-19T07:26:38;96076.81;;;18.11;100.00
54994;BME280;40891;47.242;8.648;2022-08-19T07:29:04;96080.13;;;18.15;100.00
54994;BME280;40891;47.242;8.648;2022-08-19T07:31:30;96085.00;;;18.14;100.00
54994;BME280;40891;47.242;8.648;2022-08-19T07:33:56;96080.91;;;18.15;100.00
54994;BME280;40891;47.242;8.648;2022-08-19T07:36:24;96082.19;;;18.20;100.00
54994;BME280;40891;47.242;8.648;2022-08-19T07:38:51;96080.41;;;18.28;100.00
54994;BME280;40891;47.242;8.648;2022-08-19T07:41:22;96080.16;;;18.26;100.00
54994;BME280;40891;47.242;8.648;2022-08-19T07:43:49;96087.28;;;18.27;100.00
54994;BME280;40891;47.242;8.648;2022-08-19T07:46:15;96088.06;;;18.27;100.00
54994;BME280;40891;47.242;8.648;2022-08-19T07:48:42;96086.53;;;18.32;100.00
54994;BME280;40891;47.242;8.648;2022-08-19T07:51:09;96098.81;;;18.34;100.00
54994;BME280;40891;47.242;8.648;2022-08-19T07:53:36;96105.22;;;18.35;100.00
54994;BME280;40891;47.242;8.648;2022-08-19T07:56:03;96101.16;;;18.36;100.00
54994;BME280;40891;47.242;8.648;2022-08-19T07:58:36;96106.25;;;18.32;100.00
54994;BME280;40891;47.242;8.648;2022-08-19T08:01:02;96101.63;;;18.29;100.00
54994;BME280;40891;47.242;8.648;2022-08-19T08:03:28;96111.88;;;18.32;100.00
54994;BME280;40891;47.242;8.648;2022-08-19T08:06:15;96114.44;;;18.30;100.00
54994;BME280;40891;47.242;8.648;2022-08-19T08:09:00;96119.03;;;18.27;100.00
54994;BME280;40891;47.242;8.648;2022-08-19T08:11:47;96129.28;;;18.30;100.00
54994;BME280;40891;47.242;8.648;2022-08-19T08:14:35;96129.03;;;18.28;100.00
54994;BME280;40891;47.242;8.648;2022-08-19T08:17:04;96129.00;;;18.23;100.00
54994;BME280;40891;47.242;8.648;2022-08-19T08:19:30;96135.41;;;18.29;100.00
54994;BME280;40891;47.242;8.648;2022-08-19T08:21:57;96134.13;;;18.30;100.00
54994;BME280;40891;47.242;8.648;2022-08-19T08:24:24;96143.09;;;18.23;100.00
54994;BME280;40891;47.242;8.648;2022-08-19T08:26:49;96145.16;;;18.39;100.00
54994;BME280;40891;47.242;8.648;2022-08-19T08:29:14;96148.97;;;18.25;100.00
54994;BME280;40891;47.242;8.648;2022-08-19T08:31:42;96142.56;;;18.19;100.00
54994;BME280;40891;47.242;8.648;2022-08-19T08:34:08;96163.25;;;18.10;100.00
54994;BME280;40891;47.242;8.648;2022-08-19T08:36:43;96154.06;;;18.15;100.00
54994;BME280;40891;47.242;8.648;2022-08-19T08:39:14;96157.38;;;18.03;100.00
54994;BME280;40891;47.242;8.648;2022-08-19T08:42:05;96171.13;;;17.90;100.00
54994;BME280;40891;47.242;8.648;2022-08-19T08:44:53;96173.19;;;17.84;100.00
54994;BME280;40891;47.242;8.648;2022-08-19T08:47:23;96175.72;;;17.82;100.00
54994;BME280;40891;47.242;8.648;2022-08-19T08:52:22;96186.25;;;17.92;100.00
54994;BME280;40891;47.242;8.648;2022-08-19T08:54:55;96192.88;;;17.84;100.00
54994;BME280;40891;47.242;8.648;2022-08-19T09:00:10;96200.53;;;17.83;100.00
54994;BME280;40891;47.242;8.648;2022-08-19T09:02:37;96199.28;;;17.90;100.00
54994;BME280;40891;47.242;8.648;2022-08-19T09:05:03;96200.53;;;17.83;100.00
54994;BME280;40891;47.242;8.648;2022-08-19T09:10:10;96200.50;;;17.78;100.00
54994;BME280;40891;47.242;8.648;2022-08-19T09:15:47;96199.69;;;17.66;100.00
54994;BME280;40891;47.242;8.648;2022-08-19T09:18:15;96209.38;;;17.59;100.00
54994;BME280;40891;47.242;8.648;2022-08-19T09:20:42;96210.97;;;17.72;100.00
54994;BME280;40891;47.242;8.648;2022-08-19T09:23:07;96196.16;;;17.77;100.00
54994;BME280;40891;47.242;8.648;2022-08-19T09:25:34;96210.19;;;17.71;100.00
54994;BME280;40891;47.242;8.648;2022-08-19T09:28:00;96208.28;;;17.51;100.00
54994;BME280;40891;47.242;8.648;2022-08-19T09:30:30;96212.91;;;17.54;100.00
54994;BME280;40891;47.242;8.648;2022-08-19T09:32:55;96209.16;;;17.26;100.00
54994;BME280;40891;47.242;8.648;2022-08-19T09:35:23;96212.94;;;17.23;100.00
54994;BME280;40891;47.242;8.648;2022-08-19T09:37:49;96208.16;;;17.29;100.00
54994;BME280;40891;47.242;8.648;2022-08-19T09:40:15;96211.69;;;17.24;100.00
54994;BME280;40891;47.242;8.648;2022-08-19T09:42:40;96214.19;;;17.17;100.00
54994;BME280;40891;47.242;8.648;2022-08-19T09:45:09;96212.22;;;17.28;100.00
54994;BME280;40891;47.242;8.648;2022-08-19T09:47:35;96211.22;;;17.31;100.00
54994;BME280;40891;47.242;8.648;2022-08-19T09:50:04;96211.78;;;17.41;100.00
54994;BME280;40891;47.242;8.648;2022-08-19T09:52:30;96206.41;;;17.37;100.00
54994;BME280;40891;47.242;8.648;2022-08-19T09:54:56;96227.03;;;17.29;100.00
54994;BME280;40891;47.242;8.648;2022-08-19T09:57:21;96222.94;;;17.30;100.00
54994;BME280;40891;47.242;8.648;2022-08-19T09:59:46;96227.09;;;17.34;100.00
54994;BME280;40891;47.242;8.648;2022-08-19T10:02:13;96228.63;;;17.35;100.00
54994;BME280;40891;47.242;8.648;2022-08-19T10:04:39;96224.09;;;17.49;100.00
54994;BME280;40891;47.242;8.648;2022-08-19T10:07:23;96242.44;;;17.39;100.00
54994;BME280;40891;47.242;8.648;2022-08-19T10:09:49;96235.84;;;17.47;100.00
54994;BME280;40891;47.242;8.648;2022-08-19T10:12:15;96235.06;;;17.41;100.00
54994;BME280;40891;47.242;8.648;2022-08-19T10:14:40;96233.84;;;17.53;100.00
54994;BME280;40891;47.242;8.648;2022-08-19T10:17:06;96238.00;;;17.63;100.00
54994;BME280;40891;47.242;8.648;2022-08-19T10:19:31;96232.34;;;17.52;100.00
54994;BME280;40891;47.242;8.648;2022-08-19T10:22:03;96240.03;;;17.57;100.00
54994;BME280;40891;47.242;8.648;2022-08-19T10:24:29;96239.31;;;17.62;100.00
54994;BME280;40891;47.242;8.648;2022-08-19T10:26:56;96231.03;;;17.53;100.00
54994;BME280;40891;47.242;8.648;2022-08-19T10:29:21;96230.31;;;17.58;100.00
54994;BME280;40891;47.242;8.648;2022-08-19T10:31:46;96229.28;;;17.56;100.00
54994;BME280;40891;47.242;8.648;2022-08-19T10:34:12;96231.34;;;17.55;100.00
54994;BME280;40891;47.242;8.648;2022-08-19T10:36:37;96236.75;;;17.64;100.00
54994;BME280;40891;47.242;8.648;2022-08-19T10:39:07;96234.94;;;17.61;100.00
54994;BME280;40891;47.242;8.648;2022-08-19T10:41:35;96240.88;;;17.75;100.00
54994;BME280;40891;47.242;8.648;2022-08-19T10:44:04;96228.66;;;17.83;100.00
54994;BME280;40891;47.242;8.648;2022-08-19T10:46:31;96237.56;;;17.76;100.00
54994;BME280;40891;47.242;8.648;2022-08-19T10:48:58;96236.59;;;17.85;100.00
54994;BME280;40891;47.242;8.648;2022-08-19T10:51:24;96237.63;;;17.82;100.00
54994;BME280;40891;47.242;8.648;2022-08-19T10:54:08;96243.97;;;17.82;100.00
54994;BME280;40891;47.242;8.648;2022-08-19T10:56:34;96236.03;;;17.75;100.00
54994;BME280;40891;47.242;8.648;2022-08-19T11:01:47;96238.88;;;17.81;100.00
54994;BME280;40891;47.242;8.648;2022-08-19T11:04:13;96237.34;;;17.85;100.00
54994;BME280;40891;47.242;8.648;2022-08-19T11:06:46;96239.69;;;17.92;100.00
54994;BME280;40891;47.242;8.648;2022-08-19T11:09:14;96240.69;;;17.84;100.00
54994;BME280;40891;47.242;8.648;2022-08-19T11:11:40;96242.28;;;17.96;100.00
54994;BME280;40891;47.242;8.648;2022-08-19T11:14:08;96238.50;;;18.10;100.00
54994;BME280;40891;47.242;8.648;2022-08-19T11:16:34;96247.47;;;18.25;100.00
54994;BME280;40891;47.242;8.648;2022-08-19T11:19:00;96243.69;;;18.33;100.00
54994;BME280;40891;47.242;8.648;2022-08-19T11:21:35;96245.22;;;18.34;100.00
54994;BME280;40891;47.242;8.648;2022-08-19T11:24:03;96246.53;;;18.45;100.00
54994;BME280;40891;47.242;8.648;2022-08-19T11:26:30;96263.66;;;18.35;100.00
54994;BME280;40891;47.242;8.648;2022-08-19T11:28:56;96264.94;;;18.40;100.00
54994;BME280;40891;47.242;8.648;2022-08-19T11:31:26;96266.97;;;18.34;100.00
54994;BME280;40891;47.242;8.648;2022-08-19T11:33:51;96268.56;;;18.46;100.00
54994;BME280;40891;47.242;8.648;2022-08-19T11:36:21;96274.19;;;18.46;100.00
54994;BME280;40891;47.242;8.648;2022-08-19T11:38:50;96274.75;;;18.50;100.00
54994;BME280;40891;47.242;8.648;2022-08-19T11:41:18;96286.50;;;18.54;100.00
54994;BME280;40891;47.242;8.648;2022-08-19T11:43:43;96277.06;;;18.63;100.00
54994;BME280;40891;47.242;8.648;2022-08-19T11:46:11;96282.44;;;18.66;100.00
54994;BME280;40891;47.242;8.648;2022-08-19T11:48:38;96287.81;;;18.64;100.00
54994;BME280;40891;47.242;8.648;2022-08-19T11:51:17;96293.94;;;18.52;100.00
54994;BME280;40891;47.242;8.648;2022-08-19T11:53:43;96293.97;;;18.57;100.00
54994;BME280;40891;47.242;8.648;2022-08-19T11:56:09;96292.63;;;18.47;100.00
54994;BME280;40891;47.242;8.648;2022-08-19T11:58:35;96289.88;;;18.64;100.00
54994;BME280;40891;47.242;8.648;2022-08-19T12:01:05;96295.47;;;18.47;100.00
54994;BME280;40891;47.242;8.648;2022-08-19T12:03:30;96296.44;;;18.44;100.00
54994;BME280;40891;47.242;8.648;2022-08-19T12:05:56;96294.63;;;18.41;100.00
54994;BME280;40891;47.242;8.648;2022-08-19T12:08:22;96292.78;;;18.27;100.00
54994;BME280;40891;47.242;8.648;2022-08-19T12:10:47;96296.16;;;18.42;100.00
54994;BME280;40891;47.242;8.648;2022-08-19T12:13:14;96290.50;;;18.36;100.00
54994;BME280;40891;47.242;8.648;2022-08-19T12:15:45;96292.59;;;18.36;100.00
54994;BME280;40891;47.242;8.648;2022-08-19T12:18:11;96290.50;;;18.36;100.00
54994;BME280;40891;47.242;8.648;2022-08-19T12:20:40;96289.53;;;18.45;100.00
54994;BME280;40891;47.242;8.648;2022-08-19T12:23:08;96287.25;;;18.49;100.00
54994;BME280;40891;47.242;8.648;2022-08-19T12:25:35;96302.59;;;18.48;100.00
54994;BME280;40891;47.242;8.648;2022-08-19T12:28:01;96297.97;;;18.40;100.00
54994;BME280;40891;47.242;8.648;2022-08-19T12:30:27;96300.75;;;18.28;100.00
54994;BME280;40891;47.242;8.648;2022-08-19T12:32:53;96295.06;;;18.23;100.00
54994;BME280;40891;47.242;8.648;2022-08-19T12:35:19;96295.59;;;18.27;100.00
54994;BME280;40891;47.242;8.648;2022-08-19T12:37:46;96301.22;;;18.27;100.00
54994;BME280;40891;47.242;8.648;2022-08-19T12:40:13;96294.09;;;18.37;100.00
54994;BME280;40891;47.242;8.648;2022-08-19T12:42:40;96282.69;;;18.57;100.00
54994;BME280;40891;47.242;8.648;2022-08-19T12:45:08;96281.66;;;18.60;100.00
54994;BME280;40891;47.242;8.648;2022-08-19T12:47:34;96284.00;;;18.78;100.00
54994;BME280;40891;47.242;8.648;2022-08-19T12:49:59;96281.72;;;18.82;100.00
54994;BME280;40891;47.242;8.648;2022-08-19T12:52:26;96281.22;;;18.95;100.00
54994;BME280;40891;47.242;8.648;2022-08-19T12:54:54;96281.44;;;18.80;100.00
54994;BME280;40891;47.242;8.648;2022-08-19T12:57:24;96289.88;;;18.86;100.00
54994;BME280;40891;47.242;8.648;2022-08-19T12:59:53;96282.72;;;18.79;100.00
54994;BME280;40891;47.242;8.648;2022-08-19T13:02:19;96288.88;;;18.78;100.00
54994;BME280;40891;47.242;8.648;2022-08-19T13:04:45;96281.44;;;18.75;100.00
54994;BME280;40891;47.242;8.648;2022-08-19T13:07:11;96292.72;;;18.86;100.00
54994;BME280;40891;47.242;8.648;2022-08-19T13:09:36;96286.56;;;18.93;100.00